Sinsheim, Germany

11:08 PM CET on December 26, 2014 (GMT +0100)
Duehren | Change Station
CLOSE
Current Station
Personal Weather Station
Location: Sinsheim, BADEN-W�RTTEMBERG
Elevation: 646 ft
Nearby Weather Stations

Elev 646 ft 49.24 °N, 8.84 °E | Updated 3 seconds ago

Mostly Cloudy
Mostly Cloudy
28.2 °F
Feels Like 28 °F
N
0.0
Wind Variable Wind from SE
Gusts 0.0 mph

Today
High -- | Low -- °F
--% Chance of Precip.
Yesterday
High -- | Low -- °F
Precip. -- in
8:18 AM 4:31 PM
Waxing Crescent, 29% visible
Pressure 30.21 in
Visibility 6.2 miles
Clouds Few 4200 ft
Mostly Cloudy 5800 ft
Windchill 28 °F
Dew Point 25 °F
Humidity 86%
Rainfall 0.04 in
Snow Depth Not available.
UV 0.0 out of 12
Pollen Not available.
Air Quality Not available.
Flu Activity Not available.
METAR EDDS 262150Z VRB01KT 9999 FEW042 BKN058 M00/M01 Q1023

More Conditions Fewer Conditions

Pressure 30.21 in
Visibility 6.2 miles
Clouds Few 4200 ft
Mostly Cloudy 5800 ft
Windchill 28 °F
Dew Point 25 °F
Humidity 86%
Rainfall 0.04 in
Snow Depth Not available.
UV 0.0 out of 12
Pollen Not available.
Air Quality Not available.
Flu Activity Not available.
METAR EDDS 262150Z VRB01KT 9999 FEW042 BKN058 M00/M01 Q1023

More Conditions Fewer Conditions

10-Day Weather Forecast

Almanac

Astronomy

Dec. 26, 2014 Rise Set
Actual Time
Civil Twilight
Nautical Twilight
Astronomical Twilight
Moon
Length of Visible Light
Length of Day
Tomorrow will be .
, % of the Moon is Illuminated

Today's Extremes

Country Highs Country Lows

Community

WunderPhotos

Upload Photos

1,780,731 photos uploaded!

WunderBlogs® & News

Nearby

Air Quality

  Air Quality AQ Index Pollutant
Not available.

Snow Depth

Station Depth Elevation

Earthquake Activity

City Distance Mag. Time & Date
Minimum magnitude displayed is 2.5.

Coastal Water Temperatures

Place Temperature

Nearby Weather Stations